^^
Meteo Knjazevac Station Historical Data
Daily Summary for July 21, 2021 Units:  Metric    English   Both
Daily Weekly Monthly Yearly Custom
  High: Low: Average:
Temperature: 5 °C 3.9 °C 4.4 °C
Dew Point: 4.8 °C 3.5 °C 4.2 °C
Humidity: 99% 95% 98%
Wind Speed: 8km/h 0km/h 3.1km/h
Wind Gust: 12.9km/h - -
Wind- - WNW
Pressure: 1024.6 hPa 1022.6 hPa -
Precipitation: 0 mm    
Historical Graphs
 
 
Tabular Data for July 21, 2021
Time Temperature Dew Point Pressure Wind Wind Speed Wind Gust Humidity Rainfall Rate (Hourly) solar Conditions
00:00 4.6 °C 3.9 °C 1024.6 hPa West 8 km/h 9.7 km/h 95% 0 mm 0 W/m2
00:10 4.7 °C 4.4 °C 1024.6 hPa West 8 km/h 12.9 km/h 98% 0 mm 0 W/m2
00:20 4.9 °C 4.6 °C 1024.6 hPa West 8 km/h 11.3 km/h 98% 0 mm 0 W/m2
00:30 4.9 °C 4.6 °C 1024.3 hPa West 3.2 km/h 9.7 km/h 98% 0 mm 0 W/m2
00:40 4.8 °C 4.5 °C 1024.3 hPa West 4.8 km/h 8 km/h 98% 0 mm 0 W/m2
00:50 4.8 °C 4.5 °C 1024.3 hPa West 4.8 km/h 8 km/h 98% 0 mm 0 W/m2
01:00 4.8 °C 4.5 °C 1024.3 hPa West 3.2 km/h 8 km/h 98% 0 mm 0 W/m2
01:10 4.6 °C 4 °C 1024.3 hPa West 4.8 km/h 8 km/h 96% 0 mm 0 W/m2
01:20 4.5 °C 4.2 °C 1024.3 hPa West 3.2 km/h 8 km/h 98% 0 mm 0 W/m2
01:30 4.5 °C 4.2 °C 1024.3 hPa West 3.2 km/h 8 km/h 98% 0 mm 0 W/m2
01:40 4.6 °C 4.4 °C 1024.3 hPa West 4.8 km/h 9.7 km/h 99% 0 mm 0 W/m2
01:50 4.5 °C 4.2 °C 1024.3 hPa WNW 3.2 km/h 9.7 km/h 98% 0 mm 0 W/m2
02:00 4.5 °C 4.2 °C 1024.3 hPa WNW 3.2 km/h 9.7 km/h 98% 0 mm 0 W/m2
02:10 4.3 °C 4 °C 1024.3 hPa West 1.6 km/h 6.4 km/h 98% 0 mm 0 W/m2
02:20 4.3 °C 4 °C 1024.3 hPa West 1.6 km/h 9.7 km/h 98% 0 mm 0 W/m2
02:30 4.3 °C 4.2 °C 1023.9 hPa WNW 1.6 km/h 6.4 km/h 99% 0 mm 0 W/m2
02:40 4.4 °C 4.3 °C 1023.9 hPa WNW 3.2 km/h 6.4 km/h 99% 0 mm 0 W/m2
02:50 4.5 °C 4.3 °C 1023.9 hPa NW 1.6 km/h 9.7 km/h 99% 0 mm 0 W/m2
03:00 4.5 °C 4.3 °C 1023.9 hPa Calm   4.8 km/h 99% 0 mm 0 W/m2
03:10 4.4 °C 4.1 °C 1023.6 hPa NNW 3.2 km/h 4.8 km/h 98% 0 mm 0 W/m2
03:20 4.3 °C 4 °C 1023.6 hPa WNW 1.6 km/h 4.8 km/h 98% 0 mm 0 W/m2
03:30 4.4 °C 4.3 °C 1023.6 hPa WNW 3.2 km/h 8 km/h 99% 0 mm 0 W/m2
03:40 4.6 °C 4.4 °C 1023.2 hPa WNW 4.8 km/h 8 km/h 99% 0 mm 0 W/m2
03:50 4.7 °C 4.6 °C 1023.2 hPa NW 1.6 km/h 8 km/h 99% 0 mm 0 W/m2
04:00 5 °C 4.8 °C 1023.2 hPa Calm   8 km/h 99% 0 mm 0 W/m2
04:10 4.6 °C 4.3 °C 1023.2 hPa NW 1.6 km/h 4.8 km/h 98% 0 mm 0 W/m2
04:20 4.3 °C 4 °C 1023.2 hPa WNW 3.2 km/h 6.4 km/h 98% 0 mm 0 W/m2
04:30 4.1 °C 3.5 °C 1023.2 hPa NW 1.6 km/h 4.8 km/h 96% 0 mm 0 W/m2
04:40 4 °C 3.7 °C 1022.9 hPa West 3.2 km/h 9.7 km/h 98% 0 mm 0 W/m2
04:50 3.9 °C 3.8 °C 1022.9 hPa West 1.6 km/h 6.4 km/h 99% 0 mm 0 W/m2
05:00 4 °C 3.8 °C 1022.9 hPa WNW 3.2 km/h 9.7 km/h 99% 0 mm 0 W/m2
05:10 4.2 °C 4.1 °C 1022.9 hPa NW 1.6 km/h 8 km/h 99% 0 mm 0 W/m2
05:20 4.2 °C 4.1 °C 1022.9 hPa NNW 3.2 km/h 4.8 km/h 99% 0 mm 0 W/m2
05:30 4.2 °C 4.1 °C 1022.9 hPa NW 1.6 km/h 4.8 km/h 99% 0 mm 0 W/m2
05:40 4 °C 3.8 °C 1022.6 hPa WNW 1.6 km/h 4.8 km/h 99% 0 mm 0 W/m2
05:50 3.9 °C 3.8 °C 1022.6 hPa West 3.2 km/h 8 km/h 99% 0 mm 0 W/m2
06:00 4.1 °C 3.9 °C 1022.6 hPa NW 3.2 km/h 8 km/h 99% 0 mm 0 W/m2
Knjazevac, Serbia
Compliments of Weather Underground - 2 mb